createdAt,value
2019-05-07T00:02:02.511Z,7.92
2019-05-07T00:04:30.486Z,8.48
2019-05-07T00:06:58.932Z,7.95
2019-05-07T00:09:27.479Z,8.33
2019-05-07T00:11:55.955Z,9.30
2019-05-07T00:14:24.505Z,8.60
2019-05-07T00:16:53.558Z,8.50
2019-05-07T00:19:23.155Z,8.68
2019-05-07T00:21:52.770Z,7.95
2019-05-07T00:24:22.418Z,8.05
2019-05-07T00:26:53.061Z,8.25
2019-05-07T00:29:22.363Z,8.15
2019-05-07T00:31:52.086Z,7.67
2019-05-07T00:34:22.409Z,7.47
2019-05-07T00:36:58.127Z,8.50
2019-05-07T00:39:28.186Z,7.95
2019-05-07T00:41:58.267Z,8.45
2019-05-07T00:44:26.769Z,8.50
2019-05-07T00:46:55.174Z,8.70
2019-05-07T00:49:25.554Z,8.28
2019-05-07T00:51:54.078Z,8.68
2019-05-07T00:54:23.098Z,8.95
2019-05-07T00:56:52.103Z,8.88
2019-05-07T00:59:22.524Z,8.48
2019-05-07T01:01:52.823Z,8.28
2019-05-07T01:04:22.892Z,9.15
2019-05-07T01:06:53.198Z,9.70
2019-05-07T01:09:22.898Z,8.53
2019-05-07T01:11:52.271Z,9.48
2019-05-07T01:14:22.854Z,9.03
2019-05-07T01:16:52.898Z,8.48
2019-05-07T01:19:21.995Z,9.03
2019-05-07T01:21:52.482Z,9.28
2019-05-07T01:24:23.056Z,9.13
2019-05-07T01:26:52.976Z,10.10
2019-05-07T01:29:22.604Z,8.63
2019-05-07T01:31:52.828Z,8.98
2019-05-07T01:34:25.609Z,8.83
2019-05-07T01:36:54.058Z,10.25
2019-05-07T01:39:23.196Z,9.50
2019-05-07T01:41:52.448Z,9.70
2019-05-07T01:44:22.156Z,9.20
2019-05-07T01:46:52.755Z,9.80
2019-05-07T01:49:20.960Z,9.70
2019-05-07T01:51:49.427Z,9.50
2019-05-07T01:54:17.924Z,9.10
2019-05-07T01:56:46.599Z,9.08
2019-05-07T01:59:15.042Z,9.53
2019-05-07T02:01:43.947Z,9.40
2019-05-07T02:04:14.062Z,10.03
2019-05-07T02:07:02.684Z,8.80
2019-05-07T02:09:44.110Z,9.08
2019-05-07T02:12:17.300Z,8.70
2019-05-07T02:14:45.775Z,8.98
2019-05-07T02:17:14.261Z,9.35
2019-05-07T02:19:42.707Z,9.08
2019-05-07T02:22:13.281Z,9.35
2019-05-07T02:24:43.405Z,8.40
2019-05-07T02:27:12.631Z,8.85
2019-05-07T02:29:43.083Z,8.60
2019-05-07T02:32:13.377Z,9.03
2019-05-07T02:34:44.172Z,8.78
2019-05-07T02:37:13.527Z,8.50
2019-05-07T02:39:49.414Z,8.05
2019-05-07T02:42:17.955Z,8.48
2019-05-07T02:45:04.604Z,7.75
2019-05-07T02:47:34.388Z,8.28
2019-05-07T02:50:23.353Z,8.13
2019-05-07T02:52:56.171Z,8.33
2019-05-07T02:55:29.173Z,8.10
2019-05-07T02:57:57.675Z,9.15
2019-05-07T03:00:26.216Z,9.45
2019-05-07T03:02:54.722Z,9.10
2019-05-07T03:05:23.375Z,9.25
2019-05-07T03:07:53.558Z,9.55
2019-05-07T03:10:23.664Z,8.80
2019-05-07T03:12:53.639Z,9.18
2019-05-07T03:15:24.198Z,9.20
2019-05-07T03:17:53.801Z,8.80
2019-05-07T03:20:24.181Z,8.58
2019-05-07T03:22:53.793Z,16.85
2019-05-07T03:25:26.618Z,15.78
2019-05-07T03:27:55.095Z,10.58
2019-05-07T03:30:36.078Z,9.30
2019-05-07T03:33:16.072Z,8.98
2019-05-07T03:35:46.783Z,8.53
2019-05-07T03:38:13.895Z,9.00
2019-05-07T03:40:44.859Z,9.80
2019-05-07T03:43:13.875Z,10.30
2019-05-07T03:45:47.219Z,9.48
2019-05-07T03:50:49.147Z,8.80
2019-05-07T03:53:17.742Z,8.95
2019-05-07T03:55:46.199Z,9.43
2019-05-07T03:58:14.972Z,9.65
2019-05-07T04:00:44.553Z,10.28
2019-05-07T04:03:16.343Z,10.23
2019-05-07T04:05:43.717Z,10.55
2019-05-07T04:08:13.103Z,10.18
2019-05-07T04:10:44.159Z,10.38
2019-05-07T04:13:13.310Z,10.30
2019-05-07T04:15:43.805Z,11.28
2019-05-07T04:18:13.372Z,9.95
2019-05-07T04:20:43.474Z,10.25
2019-05-07T04:23:13.874Z,9.83
2019-05-07T04:25:46.914Z,9.63
2019-05-07T04:28:19.996Z,10.68
2019-05-07T04:30:49.064Z,10.85
2019-05-07T04:33:23.710Z,10.93
2019-05-07T04:35:54.051Z,10.72
2019-05-07T04:38:23.848Z,11.20
2019-05-07T04:40:53.838Z,11.48
2019-05-07T04:43:23.422Z,10.72
2019-05-07T04:45:53.759Z,10.93
2019-05-07T04:48:23.296Z,10.38
2019-05-07T04:50:54.387Z,11.33
2019-05-07T04:53:23.882Z,12.30
2019-05-07T04:55:53.576Z,11.43
2019-05-07T04:58:23.744Z,10.80
2019-05-07T05:00:53.811Z,10.93
2019-05-07T05:03:24.335Z,11.30
2019-05-07T05:05:53.477Z,11.00
2019-05-07T05:08:23.302Z,10.60
2019-05-07T05:10:53.815Z,11.12
2019-05-07T05:13:23.673Z,11.00
2019-05-07T05:15:52.832Z,11.30
2019-05-07T05:18:22.019Z,11.48
2019-05-07T05:20:52.378Z,10.58
2019-05-07T05:23:22.813Z,9.75
2019-05-07T05:25:52.276Z,11.35
2019-05-07T05:28:21.853Z,11.20
2019-05-07T05:30:55.252Z,11.18
2019-05-07T05:33:23.698Z,10.72
2019-05-07T05:35:52.660Z,11.22
2019-05-07T05:38:22.160Z,10.93
2019-05-07T05:40:52.075Z,10.55
2019-05-07T05:43:22.513Z,10.90
2019-05-07T05:46:02.741Z,10.98
2019-05-07T05:48:33.349Z,11.93
2019-05-07T05:51:03.180Z,11.90
2019-05-07T05:53:43.385Z,11.70
2019-05-07T05:56:13.863Z,12.00
2019-05-07T05:59:02.696Z,11.80
2019-05-07T06:01:51.940Z,12.03
2019-05-07T06:04:22.236Z,11.15
2019-05-07T06:07:10.671Z,11.50
2019-05-07T06:09:33.191Z,11.25
2019-05-07T06:14:54.382Z,12.35
2019-05-07T06:17:36.207Z,11.65
2019-05-07T06:20:12.248Z,11.03
2019-05-07T06:22:45.433Z,12.60
2019-05-07T06:25:15.681Z,11.10
2019-05-07T06:27:44.119Z,12.18
2019-05-07T06:30:13.015Z,11.63
2019-05-07T06:32:43.030Z,12.00
2019-05-07T06:35:12.403Z,12.63
2019-05-07T06:37:42.887Z,12.82
2019-05-07T06:40:32.061Z,12.75
2019-05-07T06:43:12.421Z,11.83
2019-05-07T06:45:42.373Z,12.25
2019-05-07T06:48:12.620Z,11.43
2019-05-07T06:50:43.272Z,11.63
2019-05-07T06:53:12.115Z,12.13
2019-05-07T06:55:42.671Z,11.85
2019-05-07T06:58:12.258Z,12.13
2019-05-07T07:00:42.564Z,11.70
2019-05-07T07:03:24.637Z,11.60
2019-05-07T07:06:02.709Z,11.95
2019-05-07T07:08:35.651Z,11.53
2019-05-07T07:13:36.612Z,12.10
2019-05-07T07:16:05.092Z,11.83
2019-05-07T07:18:33.533Z,11.80
2019-05-07T07:21:02.571Z,12.40
2019-05-07T07:23:32.416Z,12.73
2019-05-07T07:26:03.187Z,12.37
2019-05-07T07:28:32.761Z,12.45
2019-05-07T07:31:03.239Z,13.30
2019-05-07T07:33:33.407Z,12.53
2019-05-07T07:36:02.465Z,12.13
2019-05-07T07:38:33.125Z,12.55
2019-05-07T07:41:05.508Z,12.78
2019-05-07T07:43:34.139Z,13.05
2019-05-07T07:46:02.647Z,13.48
2019-05-07T07:48:32.047Z,13.10
2019-05-07T07:51:03.004Z,12.90
2019-05-07T07:53:34.855Z,13.72
2019-05-07T07:56:19.095Z,11.83
2019-05-07T07:58:57.919Z,13.85
2019-05-07T08:01:34.133Z,13.55
2019-05-07T08:04:02.953Z,13.95
2019-05-07T08:06:32.696Z,13.68
2019-05-07T08:09:02.213Z,13.75
2019-05-07T08:11:31.926Z,13.18
2019-05-07T08:14:02.327Z,14.18
2019-05-07T08:16:32.785Z,13.83
2019-05-07T08:19:02.961Z,13.28
2019-05-07T08:21:33.192Z,13.40
2019-05-07T08:24:02.826Z,13.38
2019-05-07T08:26:32.295Z,12.25
2019-05-07T08:29:02.918Z,12.93
2019-05-07T08:31:32.967Z,12.68
2019-05-07T08:34:21.858Z,13.32
2019-05-07T08:36:52.615Z,12.98
2019-05-07T08:39:22.348Z,12.98
2019-05-07T08:41:52.723Z,12.35
2019-05-07T08:44:22.939Z,12.70
2019-05-07T08:47:08.943Z,11.20
2019-05-07T08:49:40.352Z,12.18
2019-05-07T08:52:09.407Z,11.63
2019-05-07T08:54:38.484Z,10.63
2019-05-07T08:57:07.101Z,11.65
2019-05-07T08:59:36.075Z,11.30
2019-05-07T09:02:05.019Z,11.73
2019-05-07T09:04:33.636Z,13.10
2019-05-07T09:07:02.841Z,12.13
2019-05-07T09:09:32.486Z,12.00
2019-05-07T09:12:02.975Z,10.43
2019-05-07T09:14:32.022Z,11.83
2019-05-07T09:17:02.637Z,13.30
2019-05-07T09:19:32.356Z,12.05
2019-05-07T09:22:02.276Z,11.78
2019-05-07T09:24:32.972Z,47.67
2019-05-07T09:27:02.881Z,11.08
2019-05-07T09:29:42.662Z,11.45
2019-05-07T09:32:12.824Z,11.30
2019-05-07T09:34:42.902Z,11.03
2019-05-07T09:37:15.483Z,12.03
2019-05-07T09:39:43.912Z,10.28
2019-05-07T09:42:12.449Z,10.98
2019-05-07T09:44:42.468Z,10.95
2019-05-07T09:47:12.930Z,10.30
2019-05-07T09:49:41.949Z,10.65
2019-05-07T09:52:12.264Z,10.90
2019-05-07T09:54:42.702Z,11.08
2019-05-07T09:57:26.837Z,9.85
2019-05-07T09:59:42.605Z,11.12
2019-05-07T10:02:12.240Z,9.65
2019-05-07T10:04:41.775Z,13.78
2019-05-07T10:07:12.599Z,9.58
2019-05-07T10:09:42.589Z,8.38
2019-05-07T10:12:12.621Z,8.80
2019-05-07T10:14:42.071Z,9.40
2019-05-07T10:17:12.343Z,8.75
2019-05-07T10:19:41.710Z,9.38
2019-05-07T10:22:12.458Z,7.22
2019-05-07T10:24:41.899Z,6.00
2019-05-07T10:27:12.709Z,5.78
2019-05-07T10:29:42.762Z,6.60
2019-05-07T10:32:12.858Z,8.38
2019-05-07T10:34:42.259Z,8.03
2019-05-07T10:37:12.057Z,7.90
2019-05-07T10:39:42.893Z,7.97
2019-05-07T10:42:12.365Z,6.85
2019-05-07T10:44:57.400Z,6.10
2019-05-07T10:47:41.838Z,5.58
2019-05-07T10:50:15.329Z,5.75
2019-05-07T10:52:43.947Z,5.95
2019-05-07T10:55:12.807Z,4.50
2019-05-07T10:57:42.232Z,5.37
2019-05-07T11:00:13.938Z,5.42
2019-05-07T11:02:42.688Z,6.12
2019-05-07T11:05:12.951Z,6.90
2019-05-07T11:07:42.208Z,5.87
2019-05-07T11:10:12.426Z,5.25
2019-05-07T11:12:42.503Z,5.30
2019-05-07T11:15:12.694Z,4.42
2019-05-07T11:17:46.080Z,5.12
2019-05-07T11:20:15.783Z,5.03
2019-05-07T11:22:44.304Z,4.92
2019-05-07T11:25:12.957Z,6.10
2019-05-07T11:27:42.151Z,6.10
2019-05-07T11:30:12.386Z,5.85
2019-05-07T11:32:42.884Z,5.80
2019-05-07T11:35:11.780Z,5.67
2019-05-07T11:37:44.115Z,5.85
2019-05-07T11:40:13.088Z,6.08
2019-05-07T11:42:51.577Z,6.50
2019-05-07T11:45:22.762Z,5.42
2019-05-07T11:47:51.426Z,5.90
2019-05-07T11:50:24.319Z,6.22
2019-05-07T11:53:06.361Z,5.70
2019-05-07T11:55:34.896Z,5.30
2019-05-07T11:58:03.440Z,5.75
2019-05-07T12:00:33.699Z,6.42
2019-05-07T12:03:02.377Z,6.10
2019-05-07T12:05:33.039Z,5.95
2019-05-07T12:08:02.335Z,5.62
2019-05-07T12:10:32.904Z,6.30
2019-05-07T12:13:02.368Z,7.60
2019-05-07T12:15:32.420Z,6.70
2019-05-07T12:18:03.066Z,5.90
2019-05-07T12:20:32.382Z,5.87
2019-05-07T12:23:02.831Z,5.58
2019-05-07T12:25:32.040Z,5.80
2019-05-07T12:28:02.490Z,6.60
2019-05-07T12:30:35.722Z,6.05
2019-05-07T12:35:45.604Z,5.65
2019-05-07T12:38:14.294Z,6.15
2019-05-07T12:40:43.378Z,6.08
2019-05-07T12:43:11.958Z,4.95
2019-05-07T12:45:42.144Z,6.28
2019-05-07T12:48:12.187Z,6.30
2019-05-07T12:50:43.028Z,6.12
2019-05-07T12:53:12.721Z,6.22
2019-05-07T12:55:45.764Z,6.03
2019-05-07T13:00:43.958Z,6.25
2019-05-07T13:03:15.066Z,6.40
2019-05-07T13:05:43.630Z,6.45
2019-05-07T13:08:12.371Z,6.40
2019-05-07T13:10:42.890Z,6.87
2019-05-07T13:13:12.307Z,6.42
2019-05-07T13:15:43.246Z,6.42
2019-05-07T13:18:12.683Z,5.78
2019-05-07T13:20:41.375Z,5.33
2019-05-07T13:23:11.841Z,5.65
2019-05-07T13:25:40.098Z,6.08
2019-05-07T13:28:08.688Z,6.50
2019-05-07T13:30:38.413Z,5.87
2019-05-07T13:33:06.976Z,5.85
2019-05-07T13:35:36.071Z,6.00
2019-05-07T13:38:06.929Z,5.42
2019-05-07T13:40:37.267Z,5.45
2019-05-07T13:43:14.243Z,6.22
2019-05-07T13:45:49.078Z,6.25
2019-05-07T13:48:24.617Z,5.67
2019-05-07T13:50:53.376Z,5.87
2019-05-07T13:53:22.807Z,6.08
2019-05-07T13:55:51.445Z,6.20
2019-05-07T13:58:20.353Z,5.50
2019-05-07T14:00:53.466Z,5.87
2019-05-07T14:05:51.731Z,6.33
2019-05-07T14:08:23.062Z,5.65
2019-05-07T14:10:52.069Z,5.80
2019-05-07T14:13:21.936Z,5.58
2019-05-07T14:16:07.158Z,6.25
2019-05-07T14:18:37.690Z,5.10
2019-05-07T14:21:07.116Z,5.60
2019-05-07T14:23:35.979Z,6.28
2019-05-07T14:26:05.224Z,5.42
2019-05-07T14:28:33.964Z,5.67
2019-05-07T14:31:02.804Z,5.20
2019-05-07T14:33:38.721Z,5.03
2019-05-07T14:36:11.958Z,5.17
2019-05-07T14:38:45.221Z,5.37
2019-05-07T14:41:13.791Z,4.97
2019-05-07T14:43:53.131Z,4.95
2019-05-07T14:46:21.704Z,5.30
2019-05-07T14:48:51.998Z,5.78
2019-05-07T14:51:22.108Z,5.58
2019-05-07T14:53:50.885Z,5.20
2019-05-07T14:56:19.390Z,5.35
2019-05-07T14:58:47.827Z,5.80
2019-05-07T15:01:16.341Z,5.50
2019-05-07T15:03:44.983Z,5.97
2019-05-07T15:06:13.534Z,5.62
2019-05-07T15:08:42.948Z,6.92
2019-05-07T15:11:11.620Z,5.60
2019-05-07T15:13:40.280Z,5.20
2019-05-07T15:16:08.887Z,5.53
2019-05-07T15:18:42.385Z,5.22
2019-05-07T15:21:12.321Z,5.62
2019-05-07T15:23:42.434Z,5.58
2019-05-07T15:26:12.787Z,5.45
2019-05-07T15:28:43.244Z,5.60
2019-05-07T15:31:13.611Z,4.85
2019-05-07T15:33:42.168Z,5.75
2019-05-07T15:36:11.992Z,5.55
2019-05-07T15:38:42.717Z,5.50
2019-05-07T15:41:10.702Z,5.28
2019-05-07T15:43:39.175Z,5.35
2019-05-07T15:46:07.671Z,5.45
2019-05-07T15:48:36.134Z,5.30
2019-05-07T15:51:04.632Z,5.20
2019-05-07T15:53:51.893Z,5.35
2019-05-07T15:56:21.741Z,5.42
2019-05-07T15:58:51.772Z,5.83
2019-05-07T16:01:25.612Z,5.58
2019-05-07T16:03:54.985Z,5.28
2019-05-07T16:06:23.684Z,4.95
2019-05-07T16:08:53.789Z,4.87
2019-05-07T16:11:23.199Z,5.33
2019-05-07T16:14:05.598Z,4.45
2019-05-07T16:16:35.891Z,5.00
2019-05-07T16:19:15.199Z,5.05
2019-05-07T16:21:43.690Z,4.75
2019-05-07T16:24:12.309Z,4.50
2019-05-07T16:26:41.904Z,4.55
2019-05-07T16:29:12.990Z,4.50
2019-05-07T16:31:40.947Z,4.50
2019-05-07T16:34:09.426Z,5.15
2019-05-07T16:36:37.921Z,4.10
2019-05-07T16:39:07.288Z,3.80
2019-05-07T16:41:35.764Z,4.50
2019-05-07T16:44:04.894Z,4.62
2019-05-07T16:46:33.484Z,4.33
2019-05-07T16:49:02.419Z,4.20
2019-05-07T16:51:32.831Z,4.60
2019-05-07T16:54:03.250Z,4.50
2019-05-07T16:56:33.373Z,4.37
2019-05-07T16:59:03.484Z,4.20
2019-05-07T17:01:32.552Z,4.75
2019-05-07T17:04:02.736Z,4.55
2019-05-07T17:06:32.148Z,4.45
2019-05-07T17:09:13.841Z,5.00
2019-05-07T17:11:43.662Z,4.67
2019-05-07T17:14:13.020Z,5.05
2019-05-07T17:16:41.707Z,4.35
2019-05-07T17:19:11.931Z,4.10
2019-05-07T17:21:42.906Z,4.08
2019-05-07T17:24:11.964Z,4.00
2019-05-07T17:26:42.366Z,4.60
2019-05-07T17:29:12.039Z,4.95
2019-05-07T17:31:42.515Z,4.75
2019-05-07T17:34:11.813Z,3.90
2019-05-07T17:36:42.176Z,4.35
2019-05-07T17:39:12.197Z,4.58
2019-05-07T17:41:42.739Z,4.22
2019-05-07T17:44:11.873Z,3.75
2019-05-07T17:46:42.726Z,4.22
2019-05-07T17:49:11.965Z,3.55
2019-05-07T17:51:46.355Z,3.83
2019-05-07T17:54:14.980Z,3.50
2019-05-07T17:56:44.258Z,3.50
2019-05-07T17:59:12.930Z,3.33
2019-05-07T18:01:43.136Z,3.12
2019-05-07T18:04:11.802Z,3.10
2019-05-07T18:06:40.347Z,2.95
2019-05-07T18:09:08.883Z,3.27
2019-05-07T18:11:37.342Z,3.02
2019-05-07T18:14:05.893Z,3.10
2019-05-07T18:16:36.046Z,2.85
2019-05-07T18:19:04.644Z,3.05
2019-05-07T18:21:33.257Z,3.17
2019-05-07T18:24:13.378Z,2.85
2019-05-07T18:26:33.726Z,3.17
2019-05-07T18:29:02.546Z,3.00
2019-05-07T18:31:47.771Z,3.12
2019-05-07T18:34:16.551Z,3.42
2019-05-07T18:36:45.072Z,3.90
2019-05-07T18:39:13.578Z,3.17
2019-05-07T18:41:41.975Z,3.22
2019-05-07T18:44:13.486Z,3.50
2019-05-07T18:46:42.807Z,4.03
2019-05-07T18:49:12.781Z,3.70
2019-05-07T18:51:43.061Z,3.70
2019-05-07T18:54:16.006Z,4.08
2019-05-07T18:56:42.156Z,4.20
2019-05-07T18:59:11.471Z,4.28
2019-05-07T19:01:42.269Z,5.05
2019-05-07T19:04:12.944Z,4.85
2019-05-07T19:06:42.436Z,5.58
2019-05-07T19:09:11.161Z,4.92
2019-05-07T19:11:40.094Z,5.28
2019-05-07T19:14:08.576Z,4.70
2019-05-07T19:16:37.226Z,4.70
2019-05-07T19:19:05.675Z,4.00
2019-05-07T19:22:03.879Z,4.70
2019-05-07T19:24:26.174Z,3.80
2019-05-07T19:26:53.906Z,4.03
2019-05-07T19:29:23.354Z,4.42
2019-05-07T19:31:55.113Z,4.10
2019-05-07T19:34:23.711Z,4.30
2019-05-07T19:36:52.591Z,4.28
2019-05-07T19:39:23.180Z,4.72
2019-05-07T19:41:52.351Z,5.05
2019-05-07T19:44:21.015Z,5.35
2019-05-07T19:46:52.474Z,4.87
2019-05-07T19:49:21.176Z,4.47
2019-05-07T19:51:49.679Z,4.65
2019-05-07T19:54:19.059Z,4.55
2019-05-07T19:56:47.518Z,5.12
2019-05-07T19:59:15.942Z,4.78
2019-05-07T20:01:46.531Z,5.08
2019-05-07T20:04:15.246Z,5.55
2019-05-07T20:06:44.237Z,5.10
2019-05-07T20:09:15.546Z,4.83
2019-05-07T20:11:45.968Z,4.53
2019-05-07T20:14:14.505Z,4.42
2019-05-07T20:16:44.508Z,4.42
2019-05-07T20:19:13.113Z,4.15
2019-05-07T20:21:42.893Z,4.00
2019-05-07T20:24:12.509Z,4.37
2019-05-07T20:26:43.080Z,4.10
2019-05-07T20:29:12.419Z,4.08
2019-05-07T20:31:42.265Z,4.22
2019-05-07T20:34:13.052Z,4.28
2019-05-07T20:36:42.746Z,3.92
2019-05-07T20:39:12.772Z,3.95
2019-05-07T20:41:42.947Z,4.10
2019-05-07T20:44:12.139Z,3.98
2019-05-07T20:46:42.152Z,3.80
2019-05-07T20:49:12.890Z,4.12
2019-05-07T20:51:41.864Z,4.00
2019-05-07T20:54:17.895Z,3.98
2019-05-07T20:57:02.103Z,4.37
2019-05-07T20:59:30.000Z,3.80
2019-05-07T21:01:58.464Z,3.83
2019-05-07T21:04:26.879Z,4.00
2019-05-07T21:06:55.374Z,3.65
2019-05-07T21:09:23.945Z,4.15
2019-05-07T21:11:52.417Z,3.87
2019-05-07T21:14:22.834Z,3.98
2019-05-07T21:16:51.867Z,4.17
2019-05-07T21:19:22.324Z,4.28
2019-05-07T21:21:50.962Z,4.10
2019-05-07T21:24:19.534Z,4.17
2019-05-07T21:26:48.024Z,4.25
2019-05-07T21:29:16.561Z,4.20
2019-05-07T21:31:45.023Z,4.30
2019-05-07T21:34:13.502Z,4.30
2019-05-07T21:36:43.194Z,4.50
2019-05-07T21:39:13.085Z,4.90
2019-05-07T21:41:42.592Z,4.22
2019-05-07T21:44:11.275Z,4.35
2019-05-07T21:46:39.746Z,4.30
2019-05-07T21:49:08.190Z,4.17
2019-05-07T21:51:36.665Z,4.33
2019-05-07T21:54:12.644Z,4.28
2019-05-07T21:56:42.743Z,5.15
2019-05-07T21:59:15.819Z,4.62
2019-05-07T22:01:46.055Z,4.65
2019-05-07T22:04:14.556Z,4.35
2019-05-07T22:06:45.578Z,4.40
2019-05-07T22:09:14.199Z,4.60
2019-05-07T22:11:42.831Z,4.62
2019-05-07T22:14:12.818Z,5.00
2019-05-07T22:16:41.700Z,4.33
2019-05-07T22:19:12.138Z,4.28
2019-05-07T22:21:42.933Z,4.58
2019-05-07T22:24:13.033Z,4.80
2019-05-07T22:26:42.001Z,4.53
2019-05-07T22:29:12.537Z,4.62
2019-05-07T22:31:48.537Z,4.65
2019-05-07T22:34:24.383Z,4.12
2019-05-07T22:36:54.973Z,4.62
2019-05-07T22:39:22.993Z,4.45
2019-05-07T22:41:51.457Z,4.90
2019-05-07T22:44:23.713Z,4.55
2019-05-07T22:46:50.051Z,4.53
2019-05-07T22:49:18.489Z,4.80
2019-05-07T22:51:46.909Z,5.72
2019-05-07T22:54:15.371Z,4.55
2019-05-07T22:56:52.521Z,4.53
2019-05-07T22:59:22.410Z,4.42
2019-05-07T23:01:51.637Z,4.78
2019-05-07T23:04:22.941Z,5.08
2019-05-07T23:06:52.768Z,4.72
2019-05-07T23:09:22.306Z,4.95
2019-05-07T23:11:52.557Z,5.20
2019-05-07T23:14:22.659Z,5.17
2019-05-07T23:16:55.022Z,5.00
2019-05-07T23:19:22.114Z,4.90
2019-05-07T23:21:52.228Z,4.70
2019-05-07T23:24:22.611Z,5.20
2019-05-07T23:26:53.587Z,5.33
2019-05-07T23:29:22.440Z,6.03
2019-05-07T23:31:52.861Z,5.10
2019-05-07T23:34:22.163Z,5.28
2019-05-07T23:36:52.992Z,5.53
2019-05-07T23:39:22.650Z,5.65
2019-05-07T23:42:02.256Z,5.87
2019-05-07T23:44:30.893Z,6.03
2019-05-07T23:46:59.429Z,5.40
2019-05-07T23:49:27.908Z,5.67
2019-05-07T23:51:56.390Z,5.65
2019-05-07T23:54:24.857Z,5.85
2019-05-07T23:57:04.964Z,5.80
2019-05-07T23:59:23.584Z,5.60
